Time;durP1;ratioP1;P1;durP2;ratioP2;P2;SDS_P1;SDS_P2;PMS_P1;PMS_P2;Temp;Humidity;BMP_temperature;BMP_pressure;BME280_temperature;BME280_humidity;BME280_pressure;Samples;Min_cycle;Max_cycle;Signal;HPM_P1;HPM_P2
2023/01/11 00:01:06;;;;;;;0.50;0.50;;;4.20;99.90;;;;;;5094647;28;20196;-69
2023/01/11 00:03:32;;;;;;;0.50;0.50;;;4.20;99.90;;;;;;5075720;28;20294;-70
2023/01/11 00:05:59;;;;;;;0.60;0.60;;;4.30;99.90;;;;;;5094111;28;20196;-69
2023/01/11 00:08:29;;;;;;;0.65;0.65;;;4.20;99.90;;;;;;5090974;28;20199;-70
2023/01/11 00:11:01;;;;;;;0.70;0.70;;;4.20;99.90;;;;;;5114775;28;20533;-71
2023/01/11 00:13:32;;;;;;;0.45;0.45;;;4.20;99.90;;;;;;5096644;28;20336;-69
2023/01/11 00:16:05;;;;;;;0.70;0.70;;;4.20;99.90;;;;;;5096538;28;20195;-69
2023/01/11 00:18:33;;;;;;;0.50;0.50;;;4.20;99.90;;;;;;5114572;28;20622;-70
2023/01/11 00:21:06;;;;;;;0.40;0.40;;;4.20;99.90;;;;;;5114836;28;20248;-69
2023/01/11 00:23:36;;;;;;;0.60;0.60;;;4.20;99.90;;;;;;5095854;28;20277;-70
2023/01/11 00:26:17;;;;;;;0.60;0.60;;;4.20;99.90;;;;;;5096595;28;20196;-70
2023/01/11 00:28:45;;;;;;;0.60;0.60;;;4.20;99.90;;;;;;5114060;28;20190;-70
2023/01/11 00:31:11;;;;;;;0.60;0.60;;;4.10;99.90;;;;;;5114559;28;20222;-70
2023/01/11 00:33:37;;;;;;;0.60;0.60;;;4.10;99.90;;;;;;5095813;28;20208;-70
2023/01/11 00:36:04;;;;;;;0.50;0.50;;;4.10;99.90;;;;;;5096225;28;20241;-70
2023/01/11 00:49:31;;;;;;;0.70;0.70;;;4.00;99.90;;;;;;5093804;28;20214;-70
2023/01/11 00:52:00;;;;;;;0.52;0.52;;;4.00;99.90;;;;;;5093422;28;20226;-71
2023/01/11 00:54:29;;;;;;;0.70;0.70;;;4.00;99.90;;;;;;5093279;28;20191;-71
2023/01/11 00:56:55;;;;;;;0.50;0.50;;;4.00;99.90;;;;;;5093461;28;20188;-71
2023/01/11 00:59:24;;;;;;;0.50;0.50;;;4.00;99.90;;;;;;5093047;28;20192;-71
2023/01/11 01:01:52;;;;;;;0.70;0.70;;;4.00;99.90;;;;;;5093519;28;20188;-69
2023/01/11 01:04:18;;;;;;;0.50;0.50;;;4.00;99.90;;;;;;5074882;28;20192;-70
2023/01/11 01:06:44;;;;;;;0.50;0.50;;;4.00;99.90;;;;;;5093306;28;20188;-71
2023/01/11 01:09:10;;;;;;;0.50;0.50;;;4.00;99.90;;;;;;5093592;28;20218;-69
2023/01/11 01:11:35;;;;;;;0.50;0.50;;;4.00;99.90;;;;;;5075081;28;20260;-70
2023/01/11 01:16:50;;;;;;;0.60;0.60;;;4.00;99.90;;;;;;5093139;28;20218;-70
2023/01/11 01:19:16;;;;;;;0.60;0.60;;;4.00;99.90;;;;;;5093009;28;20188;-70
2023/01/11 01:21:45;;;;;;;0.70;0.70;;;3.90;99.90;;;;;;5092622;28;20188;-70
2023/01/11 01:24:11;;;;;;;0.65;0.65;;;3.90;99.90;;;;;;5075023;28;20200;-69
2023/01/11 01:26:37;;;;;;;0.60;0.60;;;3.90;99.90;;;;;;5092739;28;20719;-69
2023/01/11 01:29:05;;;;;;;0.60;0.60;;;4.00;99.90;;;;;;5092826;28;20184;-69
2023/01/11 01:31:31;;;;;;;0.50;0.50;;;4.00;99.90;;;;;;5092750;28;20191;-69
2023/01/11 01:34:00;;;;;;;0.60;0.60;;;4.00;99.90;;;;;;5093344;28;20210;-69
2023/01/11 01:36:26;;;;;;;0.50;0.50;;;4.00;99.90;;;;;;5074803;28;20214;-69
2023/01/11 01:38:51;;;;;;;0.65;0.65;;;3.90;99.90;;;;;;5075936;28;20196;-69
2023/01/11 01:41:17;;;;;;;0.45;0.45;;;3.90;99.90;;;;;;5079018;28;20214;-69
2023/01/11 01:44:33;;;;;;;0.70;0.70;;;3.90;99.90;;;;;;5096798;28;20212;-71
2023/01/11 01:47:02;;;;;;;0.60;0.60;;;3.90;99.90;;;;;;5071930;28;20212;-69
2023/01/11 01:49:33;;;;;;;0.47;0.47;;;3.90;99.90;;;;;;5078455;28;20203;-69
2023/01/11 01:52:00;;;;;;;0.60;0.60;;;3.90;99.90;;;;;;5096830;28;20567;-70
2023/01/11 01:54:33;;;;;;;0.70;0.70;;;3.90;99.90;;;;;;5096537;28;20188;-70
2023/01/11 01:57:04;;;;;;;0.60;0.60;;;3.80;99.90;;;;;;5096813;28;20188;-71
2023/01/11 01:59:33;;;;;;;0.50;0.50;;;3.80;99.90;;;;;;5099539;28;20653;-69
2023/01/11 02:04:28;;;;;;;0.60;0.60;;;3.90;99.90;;;;;;4992725;28;20591;-74
2023/01/11 02:06:58;;;;;;;0.65;0.65;;;3.90;99.90;;;;;;4997447;28;20203;-75
2023/01/11 02:09:51;;;;;;;0.52;0.52;;;3.90;99.90;;;;;;4997164;28;20289;-75
2023/01/11 02:12:18;;;;;;;0.60;0.60;;;3.90;99.90;;;;;;4996789;28;20211;-75
2023/01/11 02:14:46;;;;;;;0.40;0.40;;;3.90;99.90;;;;;;4997227;28;20199;-75
2023/01/11 02:17:12;;;;;;;0.50;0.50;;;3.80;99.90;;;;;;4997408;28;20651;-74
2023/01/11 02:19:44;;;;;;;0.55;0.55;;;3.80;99.90;;;;;;5012027;28;20544;-75
2023/01/11 02:22:22;;;;;;;0.70;0.70;;;3.80;99.90;;;;;;4997014;28;20566;-74
2023/01/11 02:24:47;;;;;;;0.60;0.60;;;3.90;99.90;;;;;;5012111;28;20253;-74
2023/01/11 02:27:19;;;;;;;0.68;0.68;;;3.90;99.90;;;;;;4996784;28;20278;-74
2023/01/11 02:30:07;;;;;;;0.90;0.90;;;3.80;99.90;;;;;;4996895;28;20191;-74
2023/01/11 02:32:56;;;;;;;0.60;0.60;;;3.90;99.90;;;;;;4977290;28;20192;-75
2023/01/11 02:35:34;;;;;;;0.60;0.60;;;3.80;99.90;;;;;;4986103;28;20634;-75
2023/01/11 02:38:15;;;;;;;0.70;0.70;;;3.80;99.90;;;;;;5011623;28;20245;-74
2023/01/11 02:40:57;;;;;;;0.52;0.52;;;3.80;99.90;;;;;;4996537;28;20679;-75
2023/01/11 02:46:40;;;;;;;1.17;1.13;;;3.80;99.90;;;;;;4996568;28;20286;-74
2023/01/11 02:49:12;;;;;;;0.50;0.50;;;3.70;99.90;;;;;;4997164;28;20206;-74
2023/01/11 02:52:10;;;;;;;0.70;0.70;;;3.70;99.90;;;;;;4995784;28;20231;-74
2023/01/11 02:54:40;;;;;;;0.70;0.70;;;3.70;99.90;;;;;;4996143;28;20302;-74
2023/01/11 02:57:08;;;;;;;0.70;0.70;;;3.70;99.90;;;;;;5010530;28;20346;-74
2023/01/11 02:59:35;;;;;;;0.80;0.80;;;3.70;99.90;;;;;;5015755;28;20195;-74
2023/01/11 03:02:01;;;;;;;1.50;1.40;;;3.60;99.90;;;;;;4999148;28;20539;-73
2023/01/11 03:04:35;;;;;;;0.60;0.60;;;3.60;99.90;;;;;;4976799;28;20216;-74
2023/01/11 03:07:34;;;;;;;0.60;0.60;;;3.70;99.90;;;;;;4977162;28;20602;-74
2023/01/11 03:10:14;;;;;;;0.60;0.60;;;3.60;99.90;;;;;;4976880;28;20197;-74
2023/01/11 03:12:55;;;;;;;0.60;0.60;;;3.60;99.90;;;;;;4976805;28;20192;-74
2023/01/11 03:15:52;;;;;;;0.52;0.52;;;3.60;99.90;;;;;;4976600;28;20201;-74
2023/01/11 03:18:27;;;;;;;0.68;0.68;;;3.60;99.90;;;;;;4974559;28;20303;-75
2023/01/11 03:21:24;;;;;;;0.70;0.70;;;3.60;99.90;;;;;;4976037;28;20223;-74
2023/01/11 03:24:30;;;;;;;0.52;0.52;;;3.60;99.90;;;;;;4975248;28;20270;-74
2023/01/11 03:27:08;;;;;;;0.65;0.65;;;3.60;99.90;;;;;;4977051;28;20195;-74
2023/01/11 03:30:04;;;;;;;0.57;0.57;;;3.60;99.90;;;;;;4976616;28;20204;-74
2023/01/11 03:32:51;;;;;;;0.70;0.70;;;3.60;99.90;;;;;;4942450;29;20220;-75
2023/01/11 03:35:28;;;;;;;0.68;0.68;;;3.60;99.90;;;;;;4974163;28;20203;-74
2023/01/11 03:38:00;;;;;;;0.65;0.65;;;3.50;99.90;;;;;;4990227;28;20614;-74
2023/01/11 03:40:38;;;;;;;0.60;0.60;;;3.50;99.90;;;;;;4977111;28;20200;-75
2023/01/11 03:43:10;;;;;;;0.60;0.60;;;3.50;99.90;;;;;;4978861;28;20299;-76
2023/01/11 03:45:49;;;;;;;0.60;0.60;;;3.50;99.90;;;;;;4976788;28;20203;-75
2023/01/11 03:48:38;;;;;;;0.60;0.60;;;3.60;99.90;;;;;;4974804;28;20283;-74
2023/01/11 03:51:09;;;;;;;0.60;0.60;;;3.60;99.90;;;;;;4976007;28;20196;-73
2023/01/11 03:53:38;;;;;;;2.25;1.95;;;3.60;99.90;;;;;;4975739;28;20306;-73
2023/01/11 03:56:09;;;;;;;0.50;0.50;;;3.60;99.90;;;;;;4976220;28;20274;-73
2023/01/11 03:58:35;;;;;;;0.60;0.60;;;3.60;99.90;;;;;;4975736;28;20239;-75
2023/01/11 04:01:02;;;;;;;0.60;0.60;;;3.60;99.90;;;;;;4958664;28;20728;-74
2023/01/11 04:03:28;;;;;;;0.60;0.60;;;3.60;99.90;;;;;;4974292;28;20284;-74
2023/01/11 04:05:58;;;;;;;0.63;0.63;;;3.60;99.90;;;;;;4974075;28;20205;-73
2023/01/11 04:08:24;;;;;;;0.50;0.50;;;3.60;99.90;;;;;;4974394;28;20205;-73
2023/01/11 04:10:50;;;;;;;0.70;0.70;;;3.60;99.90;;;;;;4975799;28;20583;-74
2023/01/11 04:13:16;;;;;;;0.60;0.60;;;3.60;99.90;;;;;;4974546;28;20211;-74
2023/01/11 04:15:41;;;;;;;0.60;0.60;;;3.60;99.90;;;;;;4975556;28;20677;-75
2023/01/11 04:18:07;;;;;;;6.85;3.65;;;3.60;99.90;;;;;;4975616;28;20200;-73
2023/01/11 04:20:39;;;;;;;0.60;0.60;;;3.60;99.90;;;;;;4975491;28;20298;-75
2023/01/11 04:23:06;;;;;;;0.63;0.63;;;3.60;99.90;;;;;;4975435;28;20204;-73
2023/01/11 04:25:32;;;;;;;1.42;1.20;;;3.60;99.90;;;;;;4975250;28;20193;-74
2023/01/11 04:27:58;;;;;;;1.58;1.08;;;3.50;99.90;;;;;;4975285;28;20201;-74
2023/01/11 04:30:24;;;;;;;0.60;0.60;;;3.60;99.90;;;;;;4971111;28;20694;-75
2023/01/11 04:32:50;;;;;;;0.57;0.57;;;3.60;99.90;;;;;;4993398;28;20203;-75
2023/01/11 04:35:16;;;;;;;0.68;0.68;;;3.50;99.90;;;;;;4994844;28;20282;-74
2023/01/11 04:37:42;;;;;;;0.60;0.60;;;3.60;99.90;;;;;;4990552;28;20279;-74
2023/01/11 04:40:09;;;;;;;0.60;0.60;;;3.50;99.90;;;;;;4973999;28;20722;-75
2023/01/11 04:42:34;;;;;;;0.60;0.60;;;3.50;99.90;;;;;;4973325;28;20239;-74
2023/01/11 04:45:04;;;;;;;0.70;0.70;;;3.60;99.90;;;;;;4973413;28;20196;-74
2023/01/11 04:47:30;;;;;;;0.60;0.60;;;3.60;99.90;;;;;;4974684;28;20200;-75
2023/01/11 04:49:56;;;;;;;0.60;0.60;;;3.50;99.90;;;;;;4974743;28;20196;-75
2023/01/11 04:52:22;;;;;;;0.60;0.60;;;3.50;99.90;;;;;;4974580;28;20206;-73
2023/01/11 04:54:47;;;;;;;12.30;2.10;;;3.50;99.90;;;;;;4974814;28;20721;-74
2023/01/11 04:57:14;;;;;;;0.50;0.50;;;3.50;99.90;;;;;;4974840;28;20192;-74
2023/01/11 04:59:41;;;;;;;0.70;0.70;;;3.50;99.90;;;;;;4974494;28;20196;-75
2023/01/11 05:02:07;;;;;;;0.70;0.70;;;3.50;99.90;;;;;;4973379;28;20208;-74
2023/01/11 05:04:32;;;;;;;0.73;0.73;;;3.50;99.90;;;;;;4995930;28;20662;-74
2023/01/11 05:06:58;;;;;;;0.60;0.60;;;3.40;99.90;;;;;;4995068;28;20187;-74
2023/01/11 05:09:24;;;;;;;0.50;0.50;;;3.50;99.90;;;;;;4993840;28;20200;-74
2023/01/11 05:11:50;;;;;;;0.52;0.52;;;3.50;99.90;;;;;;4994191;28;20594;-74
2023/01/11 05:14:16;;;;;;;0.63;0.63;;;3.50;99.90;;;;;;4992534;28;20290;-75
2023/01/11 05:16:42;;;;;;;0.75;0.75;;;3.50;99.90;;;;;;4993926;28;20187;-74
2023/01/11 05:19:10;;;;;;;0.60;0.60;;;3.50;99.90;;;;;;4994108;28;20196;-75
2023/01/11 05:21:38;;;;;;;0.60;0.60;;;3.50;99.90;;;;;;4993719;28;20227;-73
2023/01/11 05:24:08;;;;;;;0.60;0.60;;;3.50;99.90;;;;;;4994039;28;20234;-74
2023/01/11 05:26:36;;;;;;;0.68;0.68;;;3.50;99.90;;;;;;4993202;28;20257;-74
2023/01/11 05:29:08;;;;;;;0.55;0.55;;;3.50;99.90;;;;;;4992390;28;20204;-74
2023/01/11 05:31:36;;;;;;;0.70;0.70;;;3.50;99.90;;;;;;4993702;28;20683;-74
2023/01/11 05:34:03;;;;;;;0.70;0.70;;;3.50;99.90;;;;;;4992718;28;20195;-72
2023/01/11 05:36:28;;;;;;;1.00;0.95;;;3.50;99.90;;;;;;4993622;28;20211;-75
2023/01/11 05:38:55;;;;;;;0.60;0.60;;;3.50;99.90;;;;;;4980046;28;20550;-74
2023/01/11 05:41:22;;;;;;;0.50;0.50;;;3.50;99.90;;;;;;4974262;28;20223;-73
2023/01/11 05:46:34;;;;;;;0.73;0.73;;;3.50;99.90;;;;;;4974597;28;20203;-73
2023/01/11 05:49:01;;;;;;;0.60;0.60;;;3.50;99.90;;;;;;4974375;28;20587;-73
2023/01/11 05:51:37;;;;;;;0.57;0.57;;;3.60;99.90;;;;;;4972917;28;20580;-72
2023/01/11 05:54:05;;;;;;;0.70;0.70;;;3.50;99.90;;;;;;4973107;28;20294;-74
2023/01/11 05:56:31;;;;;;;1.30;1.20;;;3.50;99.90;;;;;;4974113;28;20196;-72
2023/01/11 05:58:57;;;;;;;0.60;0.60;;;3.50;99.90;;;;;;4974304;28;20196;-73
2023/01/11 06:01:23;;;;;;;0.70;0.70;;;3.50;99.90;;;;;;4973802;28;20212;-73
2023/01/11 06:03:50;;;;;;;0.60;0.60;;;3.50;99.90;;;;;;4973904;28;20216;-73
2023/01/11 06:06:17;;;;;;;0.63;0.63;;;3.50;99.90;;;;;;4972931;28;20231;-73
2023/01/11 06:08:43;;;;;;;0.85;0.85;;;3.50;99.90;;;;;;4973800;28;20204;-74
2023/01/11 06:11:09;;;;;;;0.68;0.68;;;3.50;99.90;;;;;;4974154;28;20193;-74
2023/01/11 06:13:34;;;;;;;1.15;1.10;;;3.40;99.90;;;;;;4972623;28;20688;-73
2023/01/11 06:16:09;;;;;;;0.55;0.55;;;3.40;99.90;;;;;;4974057;28;20196;-73
2023/01/11 06:18:37;;;;;;;1.60;1.50;;;3.40;99.90;;;;;;4972684;28;20200;-73
2023/01/11 06:21:03;;;;;;;0.60;0.60;;;3.40;99.90;;;;;;4973513;28;20206;-74
2023/01/11 06:23:31;;;;;;;0.60;0.60;;;3.40;99.90;;;;;;4977343;28;20278;-73
2023/01/11 06:26:01;;;;;;;0.55;0.55;;;3.40;99.90;;;;;;4995049;28;20204;-74
2023/01/11 06:28:26;;;;;;;0.50;0.50;;;3.40;99.90;;;;;;4996952;28;20750;-73
2023/01/11 06:30:56;;;;;;;0.50;0.50;;;3.30;99.90;;;;;;4997144;28;20200;-73
2023/01/11 06:33:24;;;;;;;0.60;0.60;;;3.30;99.90;;;;;;4996783;28;20211;-73
2023/01/11 06:35:51;;;;;;;0.70;0.70;;;3.30;99.90;;;;;;4996935;28;20278;-73
2023/01/11 06:38:18;;;;;;;1.83;1.60;;;3.30;99.90;;;;;;4988443;28;20200;-75
2023/01/11 06:40:55;;;;;;;0.60;0.60;;;3.20;99.90;;;;;;4977652;28;20196;-73
2023/01/11 06:43:22;;;;;;;0.50;0.50;;;3.20;99.90;;;;;;4977146;28;20722;-73
2023/01/11 06:45:48;;;;;;;0.60;0.60;;;3.20;99.90;;;;;;4975950;28;20227;-74
2023/01/11 06:48:13;;;;;;;0.57;0.57;;;3.20;99.90;;;;;;4979905;28;20196;-74
2023/01/11 06:50:39;;;;;;;0.63;0.63;;;3.10;99.90;;;;;;4979495;28;20258;-74
2023/01/11 06:53:05;;;;;;;0.70;0.70;;;3.10;99.90;;;;;;4996762;28;20203;-74
2023/01/11 06:55:31;;;;;;;0.70;0.70;;;3.10;99.90;;;;;;4996337;28;20199;-74
2023/01/11 06:57:57;;;;;;;0.80;0.80;;;3.10;99.90;;;;;;4995286;28;20226;-74
2023/01/11 07:00:23;;;;;;;0.70;0.70;;;3.10;99.90;;;;;;4978647;28;20691;-74
2023/01/11 07:02:49;;;;;;;0.50;0.50;;;3.00;99.90;;;;;;4996037;28;20701;-74
2023/01/11 07:05:16;;;;;;;0.70;0.70;;;3.10;99.90;;;;;;4995762;28;20231;-74
2023/01/11 07:07:42;;;;;;;0.60;0.60;;;3.00;99.90;;;;;;4988665;28;20660;-74
2023/01/11 07:10:11;;;;;;;0.50;0.50;;;3.10;99.90;;;;;;4976887;28;20196;-74
2023/01/11 07:12:37;;;;;;;0.60;0.60;;;3.10;99.90;;;;;;4976559;28;20279;-74
2023/01/11 07:15:04;;;;;;;0.60;0.60;;;3.10;99.90;;;;;;4976785;28;20208;-74
2023/01/11 07:17:30;;;;;;;0.60;0.60;;;3.10;99.90;;;;;;4975240;28;20671;-74
2023/01/11 07:19:56;;;;;;;0.47;0.47;;;3.20;99.90;;;;;;4981789;28;20594;-74
2023/01/11 07:22:22;;;;;;;0.60;0.60;;;3.20;99.90;;;;;;4996205;28;20215;-74
2023/01/11 07:24:49;;;;;;;0.60;0.60;;;3.20;99.90;;;;;;4996361;28;20192;-74
2023/01/11 07:27:14;;;;;;;0.60;0.60;;;3.30;99.90;;;;;;4995860;28;20202;-74
2023/01/11 07:29:40;;;;;;;0.50;0.50;;;3.30;99.90;;;;;;4995949;28;20204;-74
2023/01/11 07:32:07;;;;;;;0.60;0.60;;;3.40;99.90;;;;;;4978587;28;20206;-74
2023/01/11 07:34:33;;;;;;;0.50;0.50;;;3.50;99.90;;;;;;4995755;28;20195;-74
2023/01/11 07:36:59;;;;;;;0.55;0.55;;;3.50;99.90;;;;;;4995729;28;20202;-74
2023/01/11 07:39:25;;;;;;;4.97;1.50;;;3.50;99.90;;;;;;4977076;28;20196;-74
2023/01/11 07:44:35;;;;;;;0.50;0.50;;;3.70;99.90;;;;;;4976085;28;20687;-74
2023/01/11 07:47:00;;;;;;;0.50;0.50;;;3.80;99.90;;;;;;4976467;28;20223;-74
2023/01/11 07:49:26;;;;;;;0.60;0.60;;;3.90;99.90;;;;;;4975972;28;20219;-74
2023/01/11 07:51:52;;;;;;;0.60;0.60;;;3.90;99.90;;;;;;4975006;28;20200;-74
2023/01/11 07:54:18;;;;;;;0.60;0.60;;;4.00;99.90;;;;;;4975162;28;20208;-74
2023/01/11 07:56:44;;;;;;;1.27;1.17;;;4.00;99.90;;;;;;4974993;28;20200;-75
2023/01/11 07:59:10;;;;;;;0.70;0.70;;;4.00;99.90;;;;;;4977131;28;20206;-75
2023/01/11 08:01:36;;;;;;;0.60;0.60;;;4.00;99.90;;;;;;4978180;28;20231;-75
2023/01/11 08:04:02;;;;;;;0.50;0.50;;;4.00;99.90;;;;;;4985222;28;20239;-75
2023/01/11 08:06:28;;;;;;;0.60;0.60;;;4.00;99.90;;;;;;4977742;28;20663;-74
2023/01/11 08:08:53;;;;;;;0.60;0.60;;;4.10;99.90;;;;;;4977574;28;20290;-75
2023/01/11 08:16:47;;;;;;;0.50;0.50;;;4.10;99.90;;;;;;4994176;28;20238;-75
2023/01/11 08:19:13;;;;;;;0.57;0.57;;;4.10;99.90;;;;;;4997502;28;20240;-75
2023/01/11 08:21:39;;;;;;;0.50;0.50;;;4.10;99.90;;;;;;4997243;28;20666;-76
2023/01/11 08:24:05;;;;;;;0.70;0.70;;;4.10;99.90;;;;;;4995525;28;20302;-76
2023/01/11 08:26:31;;;;;;;0.55;0.55;;;4.10;99.90;;;;;;4996094;28;20574;-75
2023/01/11 08:28:57;;;;;;;0.60;0.60;;;4.20;99.90;;;;;;4996311;28;20191;-76
2023/01/11 08:31:23;;;;;;;0.55;0.55;;;4.20;99.90;;;;;;4995765;28;20196;-74
2023/01/11 08:33:49;;;;;;;0.50;0.50;;;4.20;99.90;;;;;;4994863;28;20234;-74
2023/01/11 08:36:14;;;;;;;0.60;0.60;;;4.30;99.90;;;;;;4978945;28;20215;-75
2023/01/11 08:38:40;;;;;;;0.60;0.60;;;4.30;99.90;;;;;;4977507;28;20215;-74
2023/01/11 08:41:09;;;;;;;0.60;0.60;;;4.40;99.90;;;;;;4978491;28;20617;-75
2023/01/11 08:43:39;;;;;;;0.50;0.50;;;4.40;99.90;;;;;;4976926;28;20208;-76
2023/01/11 08:46:05;;;;;;;0.70;0.70;;;4.40;99.90;;;;;;4994340;28;20669;-75
2023/01/11 08:48:30;;;;;;;0.60;0.60;;;4.40;99.90;;;;;;4997540;28;20612;-75
2023/01/11 08:50:56;;;;;;;0.52;0.52;;;4.50;99.90;;;;;;4997597;28;20191;-75
2023/01/11 08:53:22;;;;;;;0.50;0.50;;;4.50;99.90;;;;;;4996213;28;20207;-75
2023/01/11 08:55:49;;;;;;;0.70;0.70;;;4.50;99.90;;;;;;4997592;28;20292;-76
2023/01/11 08:58:15;;;;;;;0.68;0.68;;;4.50;99.90;;;;;;4997221;28;20290;-75
2023/01/11 09:00:41;;;;;;;0.98;0.95;;;4.60;99.90;;;;;;4995019;28;20235;-74
2023/01/11 09:03:07;;;;;;;0.60;0.60;;;4.60;99.90;;;;;;4994712;28;20227;-75
2023/01/11 09:05:33;;;;;;;0.60;0.60;;;4.60;99.90;;;;;;4994337;28;20220;-75
2023/01/11 09:07:59;;;;;;;0.57;0.57;;;4.60;99.90;;;;;;4994831;28;20231;-77
2023/01/11 09:10:25;;;;;;;0.70;0.70;;;4.60;99.90;;;;;;4993695;28;20206;-75
2023/01/11 09:12:55;;;;;;;0.50;0.50;;;4.70;99.90;;;;;;4992943;28;20627;-75
2023/01/11 09:15:21;;;;;;;0.50;0.50;;;4.70;99.90;;;;;;4993713;28;20215;-74
2023/01/11 09:17:48;;;;;;;0.60;0.60;;;4.80;99.90;;;;;;4993558;28;20200;-75
2023/01/11 09:20:13;;;;;;;0.60;0.60;;;4.90;99.90;;;;;;4995692;28;20231;-75
2023/01/11 09:22:39;;;;;;;0.60;0.60;;;4.90;99.90;;;;;;4994262;28;20250;-76
2023/01/11 09:25:06;;;;;;;0.60;0.60;;;5.00;99.90;;;;;;4994530;28;20223;-75
2023/01/11 09:27:31;;;;;;;0.50;0.50;;;5.00;99.90;;;;;;4994072;28;20200;-75
2023/01/11 09:29:57;;;;;;;0.60;0.60;;;5.10;99.90;;;;;;4994569;28;20200;-75
2023/01/11 09:32:23;;;;;;;0.60;0.60;;;5.10;99.90;;;;;;4994551;28;20206;-75
2023/01/11 09:34:52;;;;;;;0.43;0.43;;;5.10;99.90;;;;;;4994679;28;20657;-75
2023/01/11 09:37:19;;;;;;;0.60;0.60;;;5.10;99.90;;;;;;4993363;28;20383;-75
2023/01/11 09:39:45;;;;;;;0.50;0.50;;;5.20;99.90;;;;;;4973466;28;20196;-75
2023/01/11 09:42:30;;;;;;;0.60;0.60;;;5.30;99.90;;;;;;4989395;28;20206;-75
2023/01/11 09:45:04;;;;;;;0.50;0.50;;;5.30;99.90;;;;;;4994219;28;20238;-75
2023/01/11 09:47:39;;;;;;;0.50;0.50;;;5.40;99.90;;;;;;4992169;28;20195;-75
2023/01/11 09:50:16;;;;;;;0.43;0.43;;;5.40;99.90;;;;;;4993695;28;20187;-75
2023/01/11 09:52:46;;;;;;;0.60;0.60;;;5.50;99.90;;;;;;4993491;28;20187;-76
2023/01/11 09:55:21;;;;;;;0.60;0.60;;;5.50;99.90;;;;;;4992330;28;20302;-76
2023/01/11 09:58:01;;;;;;;0.50;0.50;;;5.50;99.90;;;;;;4993837;28;20202;-76
2023/01/11 10:00:53;;;;;;;0.60;0.60;;;5.50;99.90;;;;;;4995749;28;20556;-75
2023/01/11 10:03:52;;;;;;;0.60;0.60;;;5.50;99.90;;;;;;5002080;28;20632;-75
2023/01/11 10:06:23;;;;;;;0.60;0.60;;;5.60;99.90;;;;;;4997587;28;20199;-75
2023/01/11 10:09:12;;;;;;;0.60;0.60;;;5.60;99.90;;;;;;5002233;28;20203;-75
2023/01/11 10:12:20;;;;;;;0.70;0.70;;;5.70;99.90;;;;;;4997358;28;20242;-75
2023/01/11 10:15:24;;;;;;;0.55;0.55;;;5.70;99.90;;;;;;4997357;28;20249;-75
2023/01/11 10:18:18;;;;;;;0.60;0.60;;;5.80;99.90;;;;;;5012173;28;20689;-75
2023/01/11 10:20:50;;;;;;;0.40;0.40;;;5.80;99.90;;;;;;4997212;28;20218;-76
2023/01/11 10:23:27;;;;;;;0.60;0.60;;;5.90;99.90;;;;;;5012199;28;20219;-75
2023/01/11 10:26:01;;;;;;;0.60;0.60;;;5.90;99.90;;;;;;4997222;28;20270;-76
2023/01/11 10:28:41;;;;;;;0.70;0.70;;;5.90;99.90;;;;;;4996872;28;20202;-75
2023/01/11 10:43:23;;;;;;;0.50;0.50;;;6.20;99.90;;;;;;4977506;28;20222;-76
2023/01/11 10:46:04;;;;;;;0.50;0.50;;;6.20;99.90;;;;;;4977635;28;20290;-76
2023/01/11 10:48:32;;;;;;;0.60;0.60;;;6.20;99.90;;;;;;4992310;28;20189;-76
2023/01/11 10:51:04;;;;;;;0.60;0.60;;;6.30;99.90;;;;;;4992296;28;20662;-75
2023/01/11 10:53:46;;;;;;;0.60;0.60;;;6.30;99.90;;;;;;4976991;28;20203;-76
2023/01/11 10:56:18;;;;;;;0.60;0.60;;;6.40;99.90;;;;;;4977010;28;20562;-75
2023/01/11 10:59:07;;;;;;;0.60;0.60;;;6.30;99.90;;;;;;4977430;28;20563;-75
2023/01/11 11:01:51;;;;;;;0.60;0.60;;;6.40;99.90;;;;;;4991451;28;20207;-74
2023/01/11 11:04:29;;;;;;;0.80;0.80;;;6.50;99.90;;;;;;4964096;28;20219;-75
2023/01/11 11:07:08;;;;;;;3.72;2.25;;;6.50;99.90;;;;;;4994316;28;20250;-75
2023/01/11 11:09:46;;;;;;;0.70;0.70;;;6.50;99.90;;;;;;4995497;28;20270;-75
2023/01/11 11:12:21;;;;;;;0.65;0.65;;;6.60;99.90;;;;;;4994994;28;20669;-75
2023/01/11 11:15:06;;;;;;;0.60;0.60;;;6.60;99.90;;;;;;4995528;28;20709;-75
2023/01/11 11:17:34;;;;;;;0.60;0.60;;;6.70;99.90;;;;;;4995864;28;20654;-75
2023/01/11 11:20:16;;;;;;;0.60;0.60;;;6.70;99.90;;;;;;4978222;28;20647;-74
2023/01/11 11:22:43;;;;;;;0.70;0.70;;;6.80;99.90;;;;;;4995531;28;20253;-75
2023/01/11 11:25:38;;;;;;;0.57;0.57;;;6.80;99.90;;;;;;4995441;28;20279;-75
2023/01/11 11:28:25;;;;;;;0.70;0.70;;;6.70;99.90;;;;;;4995098;28;20238;-75
2023/01/11 11:30:53;;;;;;;0.55;0.55;;;6.80;99.90;;;;;;4995756;28;20614;-75
2023/01/11 11:33:37;;;;;;;0.60;0.60;;;6.70;99.90;;;;;;4991683;28;20226;-74
2023/01/11 11:36:06;;;;;;;0.60;0.60;;;6.80;99.90;;;;;;4976354;28;20200;-75
2023/01/11 11:38:35;;;;;;;30.13;2.70;;;6.70;99.90;;;;;;4971387;28;20212;-75
2023/01/11 11:41:07;;;;;;;0.60;0.60;;;6.70;99.90;;;;;;4971484;28;20672;-75
2023/01/11 11:43:41;;;;;;;0.60;0.60;;;6.80;99.90;;;;;;4956445;29;20236;-74
2023/01/11 11:46:13;;;;;;;0.50;0.50;;;6.70;99.90;;;;;;4956543;29;20203;-75
2023/01/11 11:48:40;;;;;;;0.60;0.60;;;6.70;99.90;;;;;;4955102;29;20688;-74
2023/01/11 11:51:14;;;;;;;6.32;2.15;;;6.70;99.90;;;;;;4955283;29;20679;-74
2023/01/11 11:53:55;;;;;;;0.60;0.60;;;6.80;99.90;;;;;;4955391;29;20210;-74
2023/01/11 11:56:33;;;;;;;0.60;0.60;;;6.70;99.90;;;;;;4956304;29;20540;-74
2023/01/11 11:59:08;;;;;;;0.70;0.70;;;6.80;99.90;;;;;;4955254;28;20663;-75
2023/01/11 12:01:39;;;;;;;0.60;0.60;;;6.80;99.90;;;;;;4977672;28;20477;-74
2023/01/11 12:04:17;;;;;;;0.77;0.77;;;6.80;99.90;;;;;;5005523;28;20230;-74
2023/01/11 12:06:52;;;;;;;0.60;0.60;;;6.80;99.90;;;;;;5012793;28;20199;-74
2023/01/11 12:09:29;;;;;;;0.60;0.60;;;6.80;99.90;;;;;;5012736;28;20565;-74
2023/01/11 12:11:55;;;;;;;0.60;0.60;;;6.80;99.90;;;;;;5012615;28;20246;-74
2023/01/11 12:14:28;;;;;;;0.60;0.60;;;6.80;99.90;;;;;;5014614;28;20270;-74
2023/01/11 12:16:56;;;;;;;0.70;0.70;;;6.80;99.90;;;;;;5014724;28;20201;-74
2023/01/11 12:19:42;;;;;;;0.70;0.70;;;6.80;99.90;;;;;;5014271;28;20600;-74
2023/01/11 12:22:18;;;;;;;1.40;1.33;;;6.80;99.90;;;;;;4975398;28;20204;-74
2023/01/11 12:24:46;;;;;;;0.60;0.60;;;6.80;99.90;;;;;;4974564;28;20287;-74
2023/01/11 12:27:27;;;;;;;0.80;0.80;;;6.80;99.90;;;;;;4975263;28;20192;-74
2023/01/11 12:30:21;;;;;;;0.70;0.70;;;6.70;99.90;;;;;;4981234;28;20267;-74
2023/01/11 12:32:59;;;;;;;1.83;1.73;;;6.70;99.90;;;;;;5009811;28;20199;-74
2023/01/11 12:35:31;;;;;;;0.70;0.70;;;6.70;99.90;;;;;;4994417;28;20250;-74
2023/01/11 12:38:25;;;;;;;0.60;0.60;;;6.60;99.90;;;;;;4993954;28;20196;-74
2023/01/11 12:40:58;;;;;;;1.02;1.02;;;6.60;99.90;;;;;;4994669;28;20280;-75
2023/01/11 12:43:37;;;;;;;0.40;0.40;;;6.60;99.90;;;;;;5009160;28;20288;-74
2023/01/11 12:46:20;;;;;;;1.15;1.15;;;6.70;99.90;;;;;;5009533;28;20195;-75
2023/01/11 12:49:19;;;;;;;0.60;0.60;;;6.70;99.90;;;;;;5009747;28;20195;-74
2023/01/11 12:51:49;;;;;;;0.50;0.50;;;6.60;99.90;;;;;;4994680;28;20191;-75
2023/01/11 12:54:27;;;;;;;0.68;0.68;;;6.70;99.90;;;;;;5009466;28;20315;-74
2023/01/11 12:57:12;;;;;;;0.60;0.60;;;6.70;99.90;;;;;;5000059;28;20206;-74
2023/01/11 12:59:59;;;;;;;0.70;0.70;;;6.60;99.90;;;;;;5013741;28;20296;-74
2023/01/11 13:02:52;;;;;;;0.60;0.60;;;6.60;99.90;;;;;;5010852;28;20198;-74
2023/01/11 13:05:32;;;;;;;0.60;0.60;;;6.50;99.90;;;;;;4994307;28;20200;-73
2023/01/11 13:08:15;;;;;;;0.70;0.70;;;6.40;99.90;;;;;;4994151;28;20677;-74
2023/01/11 13:10:49;;;;;;;8.60;2.70;;;6.40;99.90;;;;;;4994019;28;20278;-74
2023/01/11 13:13:23;;;;;;;0.60;0.60;;;6.40;99.90;;;;;;4994128;28;20207;-74
2023/01/11 13:16:16;;;;;;;0.60;0.60;;;6.40;99.90;;;;;;4992166;28;20228;-75
2023/01/11 13:18:58;;;;;;;0.60;0.60;;;6.40;99.90;;;;;;4944913;28;20215;-74
2023/01/11 13:21:41;;;;;;;0.68;0.68;;;6.30;99.90;;;;;;4973146;28;20258;-74
2023/01/11 13:24:12;;;;;;;1.35;1.25;;;6.30;99.90;;;;;;4974572;28;20208;-74
2023/01/11 13:26:46;;;;;;;0.60;0.60;;;6.30;99.90;;;;;;4974272;28;20306;-74
2023/01/11 13:29:22;;;;;;;0.60;0.60;;;6.30;99.90;;;;;;4974630;28;20234;-74
2023/01/11 13:31:50;;;;;;;0.68;0.68;;;6.20;99.90;;;;;;4974579;28;20191;-74
2023/01/11 13:34:35;;;;;;;1.08;1.08;;;6.20;99.90;;;;;;4974170;28;20195;-74
2023/01/11 13:37:37;;;;;;;0.68;0.68;;;6.10;99.90;;;;;;4974589;28;20204;-75
2023/01/11 13:40:18;;;;;;;0.70;0.70;;;6.00;99.90;;;;;;4952215;28;20212;-74
2023/01/11 13:42:52;;;;;;;0.50;0.50;;;5.90;99.90;;;;;;4953606;29;20208;-74
2023/01/11 13:45:30;;;;;;;0.60;0.60;;;5.80;99.90;;;;;;4963175;28;20602;-74
2023/01/11 13:48:04;;;;;;;0.57;0.57;;;5.80;99.90;;;;;;4972625;28;20234;-75
2023/01/11 13:50:58;;;;;;;0.65;0.65;;;5.80;99.90;;;;;;4973766;28;20200;-74
2023/01/11 13:53:45;;;;;;;0.70;0.70;;;5.90;99.90;;;;;;4955158;28;20270;-75
2023/01/11 13:56:17;;;;;;;0.70;0.70;;;5.90;99.90;;;;;;4974315;28;20250;-74
2023/01/11 13:59:20;;;;;;;0.70;0.70;;;6.00;99.90;;;;;;4973145;28;20234;-75
2023/01/11 14:02:13;;;;;;;0.50;0.50;;;6.00;99.90;;;;;;4973822;28;20196;-75
2023/01/11 14:04:52;;;;;;;0.80;0.80;;;6.00;99.90;;;;;;4973927;28;20248;-75
2023/01/11 14:08:03;;;;;;;0.40;0.40;;;6.00;99.90;;;;;;4988855;28;20200;-73